Latest Coastal Weather Observations for Townsville

IDQ60701

Issued at 9:51 pm EST Tuesday 24 May 2016 (issued every 10 minutes, with the page automatically refreshed every 10 minutes)

About coastal observations | Map of coastal stations | Coastal observations for QLD | Marine services | Other Formats
Station Details ID: 032040 Name: TOWNSVILLE AERO Lat: -19.25 Lon: 146.77 Height: 4.34 m
Data from the previous 72 hours. | See also: Recent months at Townsville
Date/Time
EST
Temp

°C
Wind Pressure Rain
since 9am
mm
Weather Cloud Vis
km
Sea
Height
m
Swell
Dir
 
Speed
knots
Gust
knots
hPa Trend Height
m
Period
s
Dir
24/09:30pm 24.3 ESE 6 7 1017.4 - 0.0 - Cloudy 10 - - - -
24/09:00pm 24.5 ESE 6 7 1017.3 S 0.0 - Cloudy 10 - - - -
24/08:30pm 24.6 SE 6 8 1016.8 - 0.0 - Cloudy 10 - - - -
24/08:00pm 24.6 SE 5 7 1016.8 - 0.0 - Cloudy 10 - - - -
24/07:30pm 24.6 ESE 6 7 1016.7 - 0.0 - Cloudy 10 - - - -
24/07:00pm 24.9 SE 5 7 1016.3 - 0.0 - Cloudy 10 - - - -
24/06:30pm 24.7 ESE 5 7 1015.9 - 0.0 - Cloudy 10 - - - -
24/06:00pm 25.3 ESE 7 8 1015.6 F 0.0 - Mostly cloudy 10 - - - -
24/05:30pm 25.6 E 7 10 1015.4 - 0.0 - Mostly clear 10 - - - -
24/05:00pm 26.6 ESE 10 14 1015.2 - 0.0 - Mostly clear 10 - - - -
24/04:30pm 26.9 ESE 12 15 1014.9 - 0.0 - Mostly clear 10 - - - -
24/04:00pm 27.0 E 8 11 1015.1 - 0.0 - Mostly clear 10 - - - -
24/03:30pm 27.6 E 10 14 1015.0 - 0.0 - Mostly clear 10 - - - -
24/03:00pm 27.4 ENE 10 13 1015.1 R 0.0 - Cloudy 10 - - - -
24/02:30pm 27.1 ENE 10 13 1015.2 - 0.0 - Mostly clear 10 - - - -
24/02:00pm 27.9 E 12 16 1015.5 - 0.0 - Mostly clear 10 - - - -
24/01:30pm 28.1 ENE 12 17 1015.4 - 0.0 - Mostly clear 10 - - - -
24/01:00pm 27.6 ENE 12 16 1015.8 - 0.0 - Mostly clear 10 - - - -
24/12:30pm 27.6 ENE 9 12 1016.4 - 0.0 - Mostly clear 10 - - - -
24/12:00pm 27.4 ESE 11 14 1017.0 R 0.0 - Cloudy 10 - - - -
24/11:30am 27.7 ESE 10 14 1017.3 - 0.0 - Mostly clear 10 - - - -
24/11:00am 27.9 ESE 11 16 1017.5 - 0.0 - Mostly clear 10 - - - -
24/10:30am 26.4 SE 8 14 1017.8 - 0.0 - Mostly clear 10 - - - -
24/10:00am 26.1 SE 7 10 1017.8 - 0.0 - Mostly clear 10 - - - -
24/09:30am 25.7 SSE 8 9 1017.9 - 0.0 - Mostly clear 10 - - - -
24/09:00am 26.0 SE 8 10 1017.7 R 0.0 - Cloudy 10 - - - -
24/08:30am 25.0 S 6 8 1017.5 - 0.0 - Mostly clear 10 - - - -
24/08:00am 24.6 SSE 6 7 1017.0 - 0.0 - Partly cloudy 10 - - - -
24/07:30am 22.4 SSW 5 7 1016.7 - 0.0 - - 10 - - - -
24/07:00am 22.0 SE 5 6 1016.3 - 0.0 - Mostly clear 10 - - - -
24/06:30am 21.3 CALM 0 0 1016.3 - 0.0 - Mostly clear 10 - - - -
24/06:00am 22.3 CALM 0 0 1016.0 F 0.0 - Mostly clear 10 - - - -
24/05:30am 22.2 SSE 2 5 1015.7 - 0.0 - - 10 - - - -
24/05:00am 22.1 CALM 0 0 1015.6 - 0.0 - - 10 - - - -
24/04:30am 22.3 CALM 0 0 1015.8 - 0.0 - - 10 - - - -
24/04:00am 22.6 SSE 5 7 1016.0 - 0.0 - - 10 - - - -
24/03:30am 23.0 SSE 6 7 1016.2 - 0.0 - - 10 - - - -
24/03:00am 22.8 S 5 7 1016.4 S 0.0 - - 10 - - - -
24/02:30am 22.6 S 5 5 1016.8 - 0.0 - - 10 - - - -
24/02:00am 22.7 SE 5 6 1017.0 - 0.0 - - 10 - - - -
24/01:30am 22.9 SE 5 7 1017.1 - 0.0 - - 10 - - - -
24/01:00am 23.1 SE 7 8 1017.2 - 0.0 - - 10 - - - -
24/12:30am 22.9 ESE 5 6 1017.3 - 0.0 - - 10 - - - -
24/12:00am 23.2 SE 5 7 1017.5 R 0.0 - - 10 - - - -
 
Date/Time
EST
Temp

°C
Wind Pressure Rain
since 9am
mm
Weather Cloud Vis
km
Sea
Height
m
Swell
Dir
 
Speed
knots
Gust
knots
hPa Trend Height
m
Period
s
Dir
23/11:30pm 23.2 ESE 6 8 1017.6 - 0.0 - - 10 - - - -
23/11:00pm 23.3 SE 6 7 1017.5 - 0.0 - - 10 - - - -
23/10:30pm 23.5 SE 6 8 1017.7 - 0.0 - - 10 - - - -
23/10:00pm 23.7 SE 6 8 1017.8 - 0.0 - - 10 - - - -
23/09:30pm 23.6 SSE 5 7 1017.5 - 0.0 - - 10 - - - -
23/09:00pm 23.5 SE 6 7 1017.3 F 0.0 - - 10 - - - -
23/08:30pm 23.6 ESE 5 6 1017.4 - 0.0 - - 10 - - - -
23/08:00pm 23.7 SE 6 6 1017.2 - 0.0 - - 10 - - - -
23/07:30pm 23.8 ESE 5 7 1017.0 - 0.0 - - 10 - - - -
23/07:00pm 23.9 SE 5 7 1016.6 - 0.0 - - 10 - - - -
23/06:30pm 24.1 SE 6 8 1016.2 - 0.0 - - 10 - - - -
23/06:00pm 24.1 ESE 7 9 1015.9 F 0.0 Showers Partly cloudy 10 - - - -
23/05:30pm 24.0 E 10 15 1015.7 - 0.0 Rain Mostly clear 10 - - - -
23/05:00pm 24.4 E 10 14 1015.6 - 0.0 - Mostly clear 10 - - - -
23/04:30pm 25.1 ESE 8 11 1015.5 - 0.0 Rain Mostly clear 10 - - - -
23/04:00pm 25.7 ESE 9 12 1015.4 - 0.0 - Mostly clear 10 - - - -
23/03:30pm 26.1 SE 7 11 1015.6 - 0.0 Rain Mostly clear 10 - - - -
23/03:00pm 26.2 ESE 9 13 1015.4 F 0.0 Showers Cloudy 10 - - - -
23/02:30pm 26.3 ESE 12 16 1015.6 - 0.0 Rain Mostly clear 10 - - - -
23/02:00pm 26.8 SE 11 13 1015.7 - 0.0 - Mostly clear 10 - - - -
23/01:30pm 26.3 SE 10 13 1016.0 - 0.0 Rain Mostly clear 10 - - - -
23/01:00pm 25.9 SE 9 14 1016.5 - 0.0 - Mostly clear 10 - - - -
23/12:30pm 26.2 SE 9 11 1017.3 - 0.0 Rain Mostly clear 10 - - - -
23/12:00pm 26.2 SSE 9 13 1017.8 R 0.0 - Cloudy 10 - - - -
23/11:30am 26.2 SSE 8 13 1017.8 - 0.0 - Partly cloudy 10 - - - -
23/11:00am 26.0 SSE 8 10 1017.8 - 0.0 - Partly cloudy 10 - - - -
23/10:30am 25.3 SSE 7 9 1018.0 - 0.0 Rain Partly cloudy 10 - - - -
23/10:00am 26.0 SE 9 14 1018.0 - 0.0 - Mostly clear 10 - - - -
23/09:30am 26.1 SE 9 11 1018.1 - 0.0 - Mostly clear 10 - - - -
23/09:00am 25.8 SSE 7 10 1017.9 R 0.0 - Cloudy 10 - - - -
23/08:30am 25.4 SSE 6 8 1017.9 - 0.0 - Mostly clear 10 - - - -
23/08:00am 24.6 SE 4 5 1017.8 - 0.0 - Mostly clear 10 - - - -
23/07:30am 24.0 SE 5 6 1017.4 - 0.0 - Mostly clear 10 - - - -
23/07:00am 23.6 SE 5 6 1017.0 - 0.0 - Mostly clear 10 - - - -
23/06:30am 23.2 SE 5 6 1016.9 - 0.0 - Mostly clear 10 - - - -
23/06:00am 23.2 SE 5 6 1016.3 F 0.0 - Cloudy 10 - - - -
23/05:30am 23.7 SSE 4 5 1016.1 - 0.0 - Partly cloudy 10 - - - -
23/05:00am 23.8 SE 5 7 1015.8 - 0.0 - Partly cloudy 10 - - - -
23/04:30am 24.0 SE 6 7 1015.9 - 0.0 - Cloudy 10 - - - -
23/04:00am 23.9 SE 8 10 1015.7 - 0.0 - Partly cloudy 10 - - - -
23/03:30am 24.0 SSE 7 9 1016.0 - 0.0 - Cloudy 10 - - - -
23/03:00am 24.1 SE 6 8 1016.4 R 0.0 - Cloudy 10 - - - -
23/02:30am 24.1 SE 7 9 1016.0 - 0.0 - - 10 - - - -
23/02:00am 24.3 SE 8 10 1016.2 - 0.0 - - 10 - - - -
23/01:30am 24.4 SE 9 13 1016.1 - 0.0 - - 10 - - - -
23/01:00am 24.5 ESE 10 14 1016.7 - 0.0 - - 10 - - - -
23/12:30am 24.4 SE 13 17 1016.5 - 0.0 - - 10 - - - -
23/12:00am 24.7 ESE 14 19 1016.6 F 0.0 - Cloudy 10 - - - -
 
Date/Time
EST
Temp

°C
Wind Pressure Rain
since 9am
mm
Weather Cloud Vis
km
Sea
Height
m
Swell
Dir
 
Speed
knots
Gust
knots
hPa Trend Height
m
Period
s
Dir
22/11:30pm 24.8 SE 12 16 1016.9 - 0.0 - Partly cloudy 10 - - - -
22/11:00pm 25.0 SE 12 16 1017.6 - 0.0 - Cloudy 10 - - - -
22/10:30pm 24.9 SE 11 15 1017.4 - 0.0 - Partly cloudy 10 - - - -
22/10:00pm 25.0 ESE 9 12 1017.5 - 0.0 - Partly cloudy 10 - - - -
22/09:30pm 25.0 ESE 9 12 1017.6 - 0.0 - Partly cloudy 10 - - - -
22/09:00pm 25.2 ESE 11 16 1017.8 F 0.0 Drizzle Cloudy 10 - - - -
22/08:30pm 25.2 ESE 11 15 1017.8 - 0.0 - - 10 - - - -
22/08:00pm 25.4 ESE 12 16 1017.6 - 0.0 - Partly cloudy 10 - - - -
22/07:30pm 25.5 ESE 10 15 1017.2 - 0.0 - Partly cloudy 10 - - - -
22/07:00pm 25.5 ESE 13 18 1017.0 - 0.0 - - 10 - - - -
22/06:30pm 25.5 ESE 14 18 1016.7 - 0.0 - - 10 - - - -
22/06:00pm 25.7 E 11 15 1016.6 F 0.0 - Cloudy 10 - - - -
22/05:30pm 25.9 ESE 13 18 1016.5 - 0.0 - Partly cloudy 10 - - - -
22/05:00pm 26.4 ESE 12 16 1016.2 - 0.0 - Cloudy 10 - - - -
22/04:30pm 26.9 ESE 15 19 1016.1 - 0.0 - Cloudy 10 - - - -
22/04:00pm 26.9 ESE 16 21 1015.9 - 0.0 - Partly cloudy 10 - - - -
22/03:30pm 27.8 ESE 14 20 1016.2 - 0.0 - Partly cloudy 10 - - - -
22/03:00pm 27.6 ESE 12 16 1016.7 R 0.0 - Cloudy 10 - - - -
22/02:30pm 27.5 ESE 15 22 1016.6 - 0.0 - Partly cloudy 10 - - - -
22/02:00pm 27.7 E 15 21 1016.9 - 0.0 - Partly cloudy 10 - - - -
22/01:30pm 27.5 ESE 13 18 1016.9 - 0.0 - Partly cloudy 10 - - - -
22/01:00pm 27.4 ESE 18 24 1016.8 - 0.0 - Partly cloudy 10 - - - -
22/12:30pm 27.2 ESE 16 26 1017.1 - 0.0 - Partly cloudy 10 - - - -
22/12:27pm 27.3 ESE 17 27 1017.1 - 0.0 - Partly cloudy 10 - - - -
22/12:00pm 27.2 ESE 16 23 1017.4 F 0.0 - Cloudy 10 - - - -
22/11:39am 27.5 ESE 16 26 1018.0 - 0.0 - Mostly clear 10 - - - -
22/11:30am 27.4 ESE 17 22 1018.1 - 0.0 - Mostly clear 10 - - - -
22/11:00am 27.1 ESE 18 26 1018.4 - 0.0 - Mostly clear 10 - - - -
22/10:30am 26.7 ESE 17 21 1019.1 - 0.0 - Mostly clear 10 - - - -
22/10:00am 26.3 ESE 13 19 1019.2 - 0.0 - Mostly clear 10 - - - -
22/09:30am 25.7 ESE 14 20 1019.3 - 0.0 - Mostly clear 10 - - - -
22/09:00am 25.9 ESE 13 18 1019.4 R 0.0 - Cloudy 10 - - - -
22/08:30am 25.5 ESE 13 18 1019.4 - 0.0 - Mostly clear 10 - - - -
22/08:00am 25.4 ESE 13 16 1019.0 - 0.0 - Mostly clear 10 - - - -
22/07:30am 25.1 SE 10 14 1018.6 - 0.0 - Mostly clear 10 - - - -
22/07:00am 25.1 SE 11 16 1018.3 - 0.0 - Mostly clear 10 - - - -
22/06:30am 24.9 SE 8 12 1017.9 - 0.0 - Mostly clear 10 - - - -
22/06:00am 24.4 ESE 12 16 1017.2 R 0.0 - Cloudy 10 - - - -
22/05:30am 24.4 ESE 13 18 1016.9 - 0.0 - Partly cloudy 10 - - - -
22/05:00am 24.2 ESE 11 16 1016.4 - 0.0 - Partly cloudy 10 - - - -
22/04:30am 24.2 ESE 14 17 1016.4 - 0.0 - Partly cloudy 10 - - - -
22/04:00am 24.3 ESE 14 18 1016.3 - 0.0 - Partly cloudy 10 - - - -
22/03:30am 24.1 ESE 15 18 1016.4 - 0.0 - Partly cloudy 10 - - - -
22/03:00am 24.0 SE 14 19 1016.6 R 0.0 - Cloudy 10 - - - -
22/02:30am 24.0 ESE 14 19 1016.5 - 0.0 - Partly cloudy 10 - - - -
22/02:00am 23.7 ESE 15 19 1016.8 - 0.0 - Partly cloudy 10 - - - -
22/01:30am 23.8 ESE 15 20 1017.2 - 0.0 - Partly cloudy 10 - - - -
22/01:29am 23.8 ESE 15 20 1017.2 - 0.0 - Partly cloudy 10 - - - -
22/01:14am 23.9 ESE 15 21 1017.3 - 0.0 - Partly cloudy 6 - - - -
22/01:00am 24.7 ESE 13 16 1017.1 - 0.0 - Partly cloudy 10 - - - -
22/12:30am 24.6 ESE 12 17 1017.2 - 0.0 - Partly cloudy 10 - - - -
22/12:00am 24.2 ESE 14 18 1017.4 F 0.0 Showers Cloudy 10 - - - -
 
Date/Time
EST
Temp

°C
Wind Pressure Rain
since 9am
mm
Weather Cloud Vis
km
Sea
Height
m
Swell
Dir
 
Speed
knots
Gust
knots
hPa Trend Height
m
Period
s
Dir
21/11:30pm 24.6 SE 14 21 1017.7 - 0.0 - Partly cloudy 10 - - - -
21/11:00pm 25.1 ESE 15 22 1017.7 - 0.0 - Partly cloudy 10 - - - -
21/10:30pm 24.8 SE 14 20 1017.7 - 0.0 - Partly cloudy 10 - - - -
21/10:00pm 24.9 ESE 12 17 1018.3 - 0.0 - Partly cloudy 10 - - - -

Other Formats:

Comma delimited format used in spreadsheet applications
http://www.bom.gov.au/fwo/IDQ60701/IDQ60701.94294.axf

JavaScript Object Notation format (JSON) in row-major order
http://www.bom.gov.au/fwo/IDQ60701/IDQ60701.94294.json